sensor_id;sensor_type;location;lat;lon;timestamp;temperature;humidity
37204;DHT22;23098;48.054;10.636;2023-10-08T00:01:29;15.70;74.20
37204;DHT22;23098;48.054;10.636;2023-10-08T00:03:58;15.80;73.70
37204;DHT22;23098;48.054;10.636;2023-10-08T00:06:25;15.90;73.40
37204;DHT22;23098;48.054;10.636;2023-10-08T00:08:53;15.90;73.20
37204;DHT22;23098;48.054;10.636;2023-10-08T00:11:28;16.00;72.70
37204;DHT22;23098;48.054;10.636;2023-10-08T00:13:57;16.10;72.20
37204;DHT22;23098;48.054;10.636;2023-10-08T00:16:22;16.20;72.50
37204;DHT22;23098;48.054;10.636;2023-10-08T00:18:48;16.30;72.50
37204;DHT22;23098;48.054;10.636;2023-10-08T00:21:18;16.30;72.50
37204;DHT22;23098;48.054;10.636;2023-10-08T00:23:53;16.30;72.70
37204;DHT22;23098;48.054;10.636;2023-10-08T00:26:25;16.10;73.00
37204;DHT22;23098;48.054;10.636;2023-10-08T00:28:59;16.10;73.90
37204;DHT22;23098;48.054;10.636;2023-10-08T00:31:25;16.00;73.60
37204;DHT22;23098;48.054;10.636;2023-10-08T00:33:56;16.00;73.50
37204;DHT22;23098;48.054;10.636;2023-10-08T00:36:22;16.00;73.60
37204;DHT22;23098;48.054;10.636;2023-10-08T00:38:50;16.00;73.90
37204;DHT22;23098;48.054;10.636;2023-10-08T00:41:19;15.90;74.10
37204;DHT22;23098;48.054;10.636;2023-10-08T00:43:48;15.70;74.90
37204;DHT22;23098;48.054;10.636;2023-10-08T00:46:15;15.60;74.80
37204;DHT22;23098;48.054;10.636;2023-10-08T00:48:53;15.60;75.20
37204;DHT22;23098;48.054;10.636;2023-10-08T00:51:23;15.50;75.80
37204;DHT22;23098;48.054;10.636;2023-10-08T00:54:02;15.60;75.10
37204;DHT22;23098;48.054;10.636;2023-10-08T00:56:36;15.70;75.10
37204;DHT22;23098;48.054;10.636;2023-10-08T00:59:20;15.90;74.40
37204;DHT22;23098;48.054;10.636;2023-10-08T01:01:50;16.00;73.90
37204;DHT22;23098;48.054;10.636;2023-10-08T01:04:38;16.20;73.70
37204;DHT22;23098;48.054;10.636;2023-10-08T01:07:05;16.20;73.70
37204;DHT22;23098;48.054;10.636;2023-10-08T01:09:41;16.20;73.40
37204;DHT22;23098;48.054;10.636;2023-10-08T01:14:53;16.20;73.30
37204;DHT22;23098;48.054;10.636;2023-10-08T01:17:20;16.30;72.70
37204;DHT22;23098;48.054;10.636;2023-10-08T01:19:50;16.30;72.60
37204;DHT22;23098;48.054;10.636;2023-10-08T01:22:25;16.30;72.80
37204;DHT22;23098;48.054;10.636;2023-10-08T01:24:54;16.30;72.90
37204;DHT22;23098;48.054;10.636;2023-10-08T01:27:20;16.20;73.00
37204;DHT22;23098;48.054;10.636;2023-10-08T01:29:47;16.20;72.90
37204;DHT22;23098;48.054;10.636;2023-10-08T01:32:16;16.10;73.10
37204;DHT22;23098;48.054;10.636;2023-10-08T01:34:43;16.20;73.30
37204;DHT22;23098;48.054;10.636;2023-10-08T01:37:16;16.10;73.60
37204;DHT22;23098;48.054;10.636;2023-10-08T01:39:48;16.00;73.60
37204;DHT22;23098;48.054;10.636;2023-10-08T01:42:16;16.10;73.50
37204;DHT22;23098;48.054;10.636;2023-10-08T01:44:49;16.20;73.20
37204;DHT22;23098;48.054;10.636;2023-10-08T01:47:15;16.30;73.10
37204;DHT22;23098;48.054;10.636;2023-10-08T01:49:42;16.30;73.30
37204;DHT22;23098;48.054;10.636;2023-10-08T01:52:10;16.30;73.50
37204;DHT22;23098;48.054;10.636;2023-10-08T01:54:48;16.20;73.70
37204;DHT22;23098;48.054;10.636;2023-10-08T01:57:15;16.20;73.80
37204;DHT22;23098;48.054;10.636;2023-10-08T01:59:40;16.10;74.00
37204;DHT22;23098;48.054;10.636;2023-10-08T02:02:06;16.10;73.70
37204;DHT22;23098;48.054;10.636;2023-10-08T02:04:35;16.20;73.40
37204;DHT22;23098;48.054;10.636;2023-10-08T02:07:04;16.20;73.00
37204;DHT22;23098;48.054;10.636;2023-10-08T02:09:36;16.30;72.60
37204;DHT22;23098;48.054;10.636;2023-10-08T02:12:02;16.40;71.60
37204;DHT22;23098;48.054;10.636;2023-10-08T02:14:29;16.50;71.60
37204;DHT22;23098;48.054;10.636;2023-10-08T02:16:57;16.50;71.20
37204;DHT22;23098;48.054;10.636;2023-10-08T02:19:27;16.50;70.90
37204;DHT22;23098;48.054;10.636;2023-10-08T02:21:53;16.60;70.70
37204;DHT22;23098;48.054;10.636;2023-10-08T02:24:20;16.60;70.70
37204;DHT22;23098;48.054;10.636;2023-10-08T02:26:47;16.60;70.90
37204;DHT22;23098;48.054;10.636;2023-10-08T02:29:13;16.60;70.50
37204;DHT22;23098;48.054;10.636;2023-10-08T02:31:39;16.70;69.80
37204;DHT22;23098;48.054;10.636;2023-10-08T02:34:08;16.70;70.00
37204;DHT22;23098;48.054;10.636;2023-10-08T02:36:35;16.70;70.20
37204;DHT22;23098;48.054;10.636;2023-10-08T02:39:04;16.50;71.10
37204;DHT22;23098;48.054;10.636;2023-10-08T02:41:32;16.50;71.40
37204;DHT22;23098;48.054;10.636;2023-10-08T02:43:57;16.40;70.80
37204;DHT22;23098;48.054;10.636;2023-10-08T02:46:24;16.30;71.60
37204;DHT22;23098;48.054;10.636;2023-10-08T02:48:52;16.20;72.10
37204;DHT22;23098;48.054;10.636;2023-10-08T02:51:18;16.00;72.40
37204;DHT22;23098;48.054;10.636;2023-10-08T02:53:46;15.90;71.90
37204;DHT22;23098;48.054;10.636;2023-10-08T02:56:12;16.00;70.90
37204;DHT22;23098;48.054;10.636;2023-10-08T02:58:42;16.20;71.20
37204;DHT22;23098;48.054;10.636;2023-10-08T03:01:12;16.30;69.90
37204;DHT22;23098;48.054;10.636;2023-10-08T03:03:39;16.30;71.00
37204;DHT22;23098;48.054;10.636;2023-10-08T03:06:05;16.30;71.20
37204;DHT22;23098;48.054;10.636;2023-10-08T03:08:37;16.10;71.60
37204;DHT22;23098;48.054;10.636;2023-10-08T03:11:02;16.10;71.10
37204;DHT22;23098;48.054;10.636;2023-10-08T03:13:29;16.10;71.50
37204;DHT22;23098;48.054;10.636;2023-10-08T03:15:54;15.90;72.70
37204;DHT22;23098;48.054;10.636;2023-10-08T03:18:23;15.70;73.50
37204;DHT22;23098;48.054;10.636;2023-10-08T03:20:49;15.70;72.20
37204;DHT22;23098;48.054;10.636;2023-10-08T03:23:16;15.80;71.50
37204;DHT22;23098;48.054;10.636;2023-10-08T03:25:59;15.80;73.00
37204;DHT22;23098;48.054;10.636;2023-10-08T03:28:48;15.60;73.40
37204;DHT22;23098;48.054;10.636;2023-10-08T03:31:23;15.60;72.40
37204;DHT22;23098;48.054;10.636;2023-10-08T03:34:08;15.70;72.40
37204;DHT22;23098;48.054;10.636;2023-10-08T03:36:38;15.70;72.20
37204;DHT22;23098;48.054;10.636;2023-10-08T03:41:41;15.80;72.70
37204;DHT22;23098;48.054;10.636;2023-10-08T03:44:08;15.80;71.90
37204;DHT22;23098;48.054;10.636;2023-10-08T03:46:40;15.70;72.20
37204;DHT22;23098;48.054;10.636;2023-10-08T03:49:11;15.90;71.30
37204;DHT22;23098;48.054;10.636;2023-10-08T03:51:46;15.90;71.70
37204;DHT22;23098;48.054;10.636;2023-10-08T03:54:11;15.80;71.80
37204;DHT22;23098;48.054;10.636;2023-10-08T03:56:37;15.70;71.40
37204;DHT22;23098;48.054;10.636;2023-10-08T03:59:03;15.70;71.60
37204;DHT22;23098;48.054;10.636;2023-10-08T04:01:38;15.80;71.40
37204;DHT22;23098;48.054;10.636;2023-10-08T04:04:06;15.70;72.80
37204;DHT22;23098;48.054;10.636;2023-10-08T04:06:37;15.60;72.40
37204;DHT22;23098;48.054;10.636;2023-10-08T04:09:05;15.70;72.10
37204;DHT22;23098;48.054;10.636;2023-10-08T04:11:33;15.70;72.00
37204;DHT22;23098;48.054;10.636;2023-10-08T04:14:14;15.90;71.40
37204;DHT22;23098;48.054;10.636;2023-10-08T04:16:42;16.10;71.00
37204;DHT22;23098;48.054;10.636;2023-10-08T04:19:08;16.30;71.20
37204;DHT22;23098;48.054;10.636;2023-10-08T04:21:33;16.30;71.30
37204;DHT22;23098;48.054;10.636;2023-10-08T04:24:02;16.30;71.50
37204;DHT22;23098;48.054;10.636;2023-10-08T04:26:31;16.20;71.90
37204;DHT22;23098;48.054;10.636;2023-10-08T04:28:59;16.20;72.20
37204;DHT22;23098;48.054;10.636;2023-10-08T04:31:31;16.20;72.20
37204;DHT22;23098;48.054;10.636;2023-10-08T04:34:06;16.20;71.90
37204;DHT22;23098;48.054;10.636;2023-10-08T04:36:48;16.20;72.20
37204;DHT22;23098;48.054;10.636;2023-10-08T04:39:26;16.40;71.80
37204;DHT22;23098;48.054;10.636;2023-10-08T04:41:58;16.50;71.60
37204;DHT22;23098;48.054;10.636;2023-10-08T04:44:25;16.60;71.90
37204;DHT22;23098;48.054;10.636;2023-10-08T04:46:52;16.50;72.60
37204;DHT22;23098;48.054;10.636;2023-10-08T04:49:18;16.40;72.70
37204;DHT22;23098;48.054;10.636;2023-10-08T04:51:58;16.30;73.30
37204;DHT22;23098;48.054;10.636;2023-10-08T04:54:25;16.20;73.70
37204;DHT22;23098;48.054;10.636;2023-10-08T04:56:56;16.20;73.40
37204;DHT22;23098;48.054;10.636;2023-10-08T04:59:24;16.40;72.70
37204;DHT22;23098;48.054;10.636;2023-10-08T05:01:58;16.40;72.60
37204;DHT22;23098;48.054;10.636;2023-10-08T05:04:42;16.40;73.00
37204;DHT22;23098;48.054;10.636;2023-10-08T05:07:25;16.40;73.30
37204;DHT22;23098;48.054;10.636;2023-10-08T05:10:10;16.40;73.20
37204;DHT22;23098;48.054;10.636;2023-10-08T05:12:54;16.40;72.60
37204;DHT22;23098;48.054;10.636;2023-10-08T05:15:29;16.40;72.70
37204;DHT22;23098;48.054;10.636;2023-10-08T05:18:23;16.50;72.30
37204;DHT22;23098;48.054;10.636;2023-10-08T05:21:03;16.50;72.60
37204;DHT22;23098;48.054;10.636;2023-10-08T05:23:48;16.50;72.10
37204;DHT22;23098;48.054;10.636;2023-10-08T05:26:37;16.50;72.80
37204;DHT22;23098;48.054;10.636;2023-10-08T05:29:07;16.60;72.00
37204;DHT22;23098;48.054;10.636;2023-10-08T05:31:53;16.60;72.50
37204;DHT22;23098;48.054;10.636;2023-10-08T05:34:38;16.60;72.70
37204;DHT22;23098;48.054;10.636;2023-10-08T05:37:25;16.60;72.70
37204;DHT22;23098;48.054;10.636;2023-10-08T05:40:02;16.70;72.70
37204;DHT22;23098;48.054;10.636;2023-10-08T05:42:43;16.70;72.40
37204;DHT22;23098;48.054;10.636;2023-10-08T05:45:12;16.70;72.80
37204;DHT22;23098;48.054;10.636;2023-10-08T05:47:38;16.70;73.10
37204;DHT22;23098;48.054;10.636;2023-10-08T05:50:06;16.70;73.50
37204;DHT22;23098;48.054;10.636;2023-10-08T05:52:42;16.60;73.50
37204;DHT22;23098;48.054;10.636;2023-10-08T05:55:31;16.50;73.40
37204;DHT22;23098;48.054;10.636;2023-10-08T05:58:06;16.50;74.30
37204;DHT22;23098;48.054;10.636;2023-10-08T06:00:45;16.40;75.40
37204;DHT22;23098;48.054;10.636;2023-10-08T06:03:17;16.20;76.80
37204;DHT22;23098;48.054;10.636;2023-10-08T06:06:07;16.10;77.50
37204;DHT22;23098;48.054;10.636;2023-10-08T06:08:55;15.90;78.60
37204;DHT22;23098;48.054;10.636;2023-10-08T06:11:36;15.70;79.20
37204;DHT22;23098;48.054;10.636;2023-10-08T06:14:22;15.60;80.00
37204;DHT22;23098;48.054;10.636;2023-10-08T06:17:05;15.60;80.50
37204;DHT22;23098;48.054;10.636;2023-10-08T06:19:52;15.50;81.90
37204;DHT22;23098;48.054;10.636;2023-10-08T06:22:18;15.50;82.10
37204;DHT22;23098;48.054;10.636;2023-10-08T06:24:45;15.40;83.30
37204;DHT22;23098;48.054;10.636;2023-10-08T06:27:10;15.40;83.10
37204;DHT22;23098;48.054;10.636;2023-10-08T06:29:42;15.40;82.90
37204;DHT22;23098;48.054;10.636;2023-10-08T06:32:10;15.40;83.40
37204;DHT22;23098;48.054;10.636;2023-10-08T06:34:37;15.50;83.40
37204;DHT22;23098;48.054;10.636;2023-10-08T06:37:05;15.50;83.30
37204;DHT22;23098;48.054;10.636;2023-10-08T06:39:32;15.60;83.40
37204;DHT22;23098;48.054;10.636;2023-10-08T06:42:13;15.60;84.00
37204;DHT22;23098;48.054;10.636;2023-10-08T06:44:39;15.60;84.00
37204;DHT22;23098;48.054;10.636;2023-10-08T06:47:07;15.70;84.30
37204;DHT22;23098;48.054;10.636;2023-10-08T06:49:35;15.60;84.80
37204;DHT22;23098;48.054;10.636;2023-10-08T06:52:01;15.60;84.70
37204;DHT22;23098;48.054;10.636;2023-10-08T06:54:27;15.70;84.50
37204;DHT22;23098;48.054;10.636;2023-10-08T06:56:56;15.70;84.80
37204;DHT22;23098;48.054;10.636;2023-10-08T06:59:21;15.80;85.00
37204;DHT22;23098;48.054;10.636;2023-10-08T07:01:51;15.90;84.80
37204;DHT22;23098;48.054;10.636;2023-10-08T07:04:17;16.00;84.10
37204;DHT22;23098;48.054;10.636;2023-10-08T07:06:44;16.20;82.90
37204;DHT22;23098;48.054;10.636;2023-10-08T07:09:12;16.30;83.30
37204;DHT22;23098;48.054;10.636;2023-10-08T07:12:07;16.40;83.90
37204;DHT22;23098;48.054;10.636;2023-10-08T07:14:39;16.60;83.60
37204;DHT22;23098;48.054;10.636;2023-10-08T07:17:07;16.80;82.70
37204;DHT22;23098;48.054;10.636;2023-10-08T07:19:33;17.10;81.60
37204;DHT22;23098;48.054;10.636;2023-10-08T07:22:07;17.30;81.60
37204;DHT22;23098;48.054;10.636;2023-10-08T07:24:48;17.50;80.50
37204;DHT22;23098;48.054;10.636;2023-10-08T07:27:16;17.70;80.30
37204;DHT22;23098;48.054;10.636;2023-10-08T07:29:47;17.70;80.10
37204;DHT22;23098;48.054;10.636;2023-10-08T07:32:13;17.90;79.20
37204;DHT22;23098;48.054;10.636;2023-10-08T07:34:40;18.00;79.90
37204;DHT22;23098;48.054;10.636;2023-10-08T07:37:06;18.10;79.80
37204;DHT22;23098;48.054;10.636;2023-10-08T07:39:31;18.20;79.00
37204;DHT22;23098;48.054;10.636;2023-10-08T07:41:59;18.40;78.20
37204;DHT22;23098;48.054;10.636;2023-10-08T07:44:25;18.60;78.00
37204;DHT22;23098;48.054;10.636;2023-10-08T07:46:53;18.70;76.60
37204;DHT22;23098;48.054;10.636;2023-10-08T07:49:23;18.80;76.40
37204;DHT22;23098;48.054;10.636;2023-10-08T07:51:51;18.80;76.00
37204;DHT22;23098;48.054;10.636;2023-10-08T07:54:21;18.90;76.70
37204;DHT22;23098;48.054;10.636;2023-10-08T07:56:48;18.90;76.60
37204;DHT22;23098;48.054;10.636;2023-10-08T07:59:15;18.80;77.20
37204;DHT22;23098;48.054;10.636;2023-10-08T08:01:42;18.70;76.70
37204;DHT22;23098;48.054;10.636;2023-10-08T08:04:12;18.80;76.40
37204;DHT22;23098;48.054;10.636;2023-10-08T08:06:49;18.80;75.90
37204;DHT22;23098;48.054;10.636;2023-10-08T08:09:19;18.80;76.30
37204;DHT22;23098;48.054;10.636;2023-10-08T08:11:49;18.80;76.70
37204;DHT22;23098;48.054;10.636;2023-10-08T08:14:15;18.80;77.30
37204;DHT22;23098;48.054;10.636;2023-10-08T08:16:49;18.90;77.40
37204;DHT22;23098;48.054;10.636;2023-10-08T08:19:15;18.90;77.30
37204;DHT22;23098;48.054;10.636;2023-10-08T08:21:42;19.00;76.60
37204;DHT22;23098;48.054;10.636;2023-10-08T08:24:13;19.10;77.00
37204;DHT22;23098;48.054;10.636;2023-10-08T08:26:40;19.20;76.50
37204;DHT22;23098;48.054;10.636;2023-10-08T08:29:10;19.30;77.10
37204;DHT22;23098;48.054;10.636;2023-10-08T08:31:40;19.50;76.60
37204;DHT22;23098;48.054;10.636;2023-10-08T08:34:11;19.60;77.10
37204;DHT22;23098;48.054;10.636;2023-10-08T08:36:45;19.60;75.90
37204;DHT22;23098;48.054;10.636;2023-10-08T08:39:14;19.60;75.80
37204;DHT22;23098;48.054;10.636;2023-10-08T08:41:58;19.60;75.60
37204;DHT22;23098;48.054;10.636;2023-10-08T08:44:30;19.60;76.20
37204;DHT22;23098;48.054;10.636;2023-10-08T08:46:58;19.50;76.80
37204;DHT22;23098;48.054;10.636;2023-10-08T08:49:24;19.50;76.20
37204;DHT22;23098;48.054;10.636;2023-10-08T08:51:52;19.50;76.40
37204;DHT22;23098;48.054;10.636;2023-10-08T08:54:19;19.50;76.60
37204;DHT22;23098;48.054;10.636;2023-10-08T08:56:46;19.50;76.60
37204;DHT22;23098;48.054;10.636;2023-10-08T08:59:11;19.50;76.90
37204;DHT22;23098;48.054;10.636;2023-10-08T09:01:41;19.50;77.00
37204;DHT22;23098;48.054;10.636;2023-10-08T09:04:07;19.50;76.20
37204;DHT22;23098;48.054;10.636;2023-10-08T09:06:37;19.50;76.50
37204;DHT22;23098;48.054;10.636;2023-10-08T09:09:07;19.60;76.80
37204;DHT22;23098;48.054;10.636;2023-10-08T09:11:51;19.60;77.20
37204;DHT22;23098;48.054;10.636;2023-10-08T09:14:20;19.70;78.10
37204;DHT22;23098;48.054;10.636;2023-10-08T09:16:47;19.80;77.70
37204;DHT22;23098;48.054;10.636;2023-10-08T09:19:13;19.80;77.70
37204;DHT22;23098;48.054;10.636;2023-10-08T09:22:05;19.70;77.30
37204;DHT22;23098;48.054;10.636;2023-10-08T09:24:38;19.80;76.70
37204;DHT22;23098;48.054;10.636;2023-10-08T09:27:08;19.80;76.10
37204;DHT22;23098;48.054;10.636;2023-10-08T09:29:35;19.80;75.90
37204;DHT22;23098;48.054;10.636;2023-10-08T09:32:11;19.80;75.10
37204;DHT22;23098;48.054;10.636;2023-10-08T09:34:37;19.80;76.00
37204;DHT22;23098;48.054;10.636;2023-10-08T09:37:03;19.90;76.70
37204;DHT22;23098;48.054;10.636;2023-10-08T09:39:29;20.00;76.40
37204;DHT22;23098;48.054;10.636;2023-10-08T09:42:00;20.10;76.10
37204;DHT22;23098;48.054;10.636;2023-10-08T09:44:25;20.10;76.80
37204;DHT22;23098;48.054;10.636;2023-10-08T09:46:53;20.20;75.60
37204;DHT22;23098;48.054;10.636;2023-10-08T09:49:30;20.20;77.00
37204;DHT22;23098;48.054;10.636;2023-10-08T09:52:02;20.30;75.90
37204;DHT22;23098;48.054;10.636;2023-10-08T09:54:44;20.40;74.80
37204;DHT22;23098;48.054;10.636;2023-10-08T09:57:13;20.50;75.80
37204;DHT22;23098;48.054;10.636;2023-10-08T09:59:39;20.50;76.70
37204;DHT22;23098;48.054;10.636;2023-10-08T10:02:06;20.70;76.50
37204;DHT22;23098;48.054;10.636;2023-10-08T10:04:35;20.60;75.10
37204;DHT22;23098;48.054;10.636;2023-10-08T10:07:10;20.60;75.70
37204;DHT22;23098;48.054;10.636;2023-10-08T10:09:38;20.60;75.80
37204;DHT22;23098;48.054;10.636;2023-10-08T10:12:05;20.60;76.20
37204;DHT22;23098;48.054;10.636;2023-10-08T10:14:55;20.70;76.00
37204;DHT22;23098;48.054;10.636;2023-10-08T10:17:24;20.70;76.30
37204;DHT22;23098;48.054;10.636;2023-10-08T10:20:01;20.80;76.10
37204;DHT22;23098;48.054;10.636;2023-10-08T10:22:34;20.90;76.00
37204;DHT22;23098;48.054;10.636;2023-10-08T10:25:03;21.00;75.50
37204;DHT22;23098;48.054;10.636;2023-10-08T10:28:21;21.10;75.30
37204;DHT22;23098;48.054;10.636;2023-10-08T10:30:35;21.30;76.20
37204;DHT22;23098;48.054;10.636;2023-10-08T10:33:01;21.40;74.90
37204;DHT22;23098;48.054;10.636;2023-10-08T10:35:27;21.40;76.20
37204;DHT22;23098;48.054;10.636;2023-10-08T10:37:53;21.40;75.40
37204;DHT22;23098;48.054;10.636;2023-10-08T10:40:24;21.40;75.20
37204;DHT22;23098;48.054;10.636;2023-10-08T10:43:08;21.50;75.10
37204;DHT22;23098;48.054;10.636;2023-10-08T10:45:41;21.30;75.50
37204;DHT22;23098;48.054;10.636;2023-10-08T10:48:10;21.30;75.10
37204;DHT22;23098;48.054;10.636;2023-10-08T10:50:48;21.20;75.20
37204;DHT22;23098;48.054;10.636;2023-10-08T10:53:36;21.10;75.50
37204;DHT22;23098;48.054;10.636;2023-10-08T10:56:23;21.20;75.80
37204;DHT22;23098;48.054;10.636;2023-10-08T10:58:59;21.20;74.30
37204;DHT22;23098;48.054;10.636;2023-10-08T11:01:28;21.10;75.40
37204;DHT22;23098;48.054;10.636;2023-10-08T11:04:10;21.10;75.00
37204;DHT22;23098;48.054;10.636;2023-10-08T11:06:42;21.10;75.50
37204;DHT22;23098;48.054;10.636;2023-10-08T11:09:10;21.10;76.80
37204;DHT22;23098;48.054;10.636;2023-10-08T11:11:48;21.10;76.00
37204;DHT22;23098;48.054;10.636;2023-10-08T11:14:20;21.10;75.40
37204;DHT22;23098;48.054;10.636;2023-10-08T11:16:47;21.00;77.60
37204;DHT22;23098;48.054;10.636;2023-10-08T11:19:13;20.90;77.00
37204;DHT22;23098;48.054;10.636;2023-10-08T11:21:51;20.90;77.40
37204;DHT22;23098;48.054;10.636;2023-10-08T11:24:34;20.90;77.90
37204;DHT22;23098;48.054;10.636;2023-10-08T11:27:01;20.80;78.20
37204;DHT22;23098;48.054;10.636;2023-10-08T11:29:47;20.70;77.90
37204;DHT22;23098;48.054;10.636;2023-10-08T11:32:15;20.70;79.20
37204;DHT22;23098;48.054;10.636;2023-10-08T11:34:47;20.80;79.00
37204;DHT22;23098;48.054;10.636;2023-10-08T11:37:28;20.70;78.80
37204;DHT22;23098;48.054;10.636;2023-10-08T11:39:54;20.60;78.50
37204;DHT22;23098;48.054;10.636;2023-10-08T11:42:24;20.60;79.60
37204;DHT22;23098;48.054;10.636;2023-10-08T11:45:02;20.50;79.50
37204;DHT22;23098;48.054;10.636;2023-10-08T11:47:46;20.50;80.40
37204;DHT22;23098;48.054;10.636;2023-10-08T11:50:14;20.50;80.20
37204;DHT22;23098;48.054;10.636;2023-10-08T11:52:45;20.50;80.20
37204;DHT22;23098;48.054;10.636;2023-10-08T11:55:12;20.50;79.40
37204;DHT22;23098;48.054;10.636;2023-10-08T11:57:47;20.50;80.20
37204;DHT22;23098;48.054;10.636;2023-10-08T12:00:15;20.50;80.70
37204;DHT22;23098;48.054;10.636;2023-10-08T12:02:52;20.60;82.10
37204;DHT22;23098;48.054;10.636;2023-10-08T12:05:20;20.60;81.60
37204;DHT22;23098;48.054;10.636;2023-10-08T12:07:53;20.60;81.80
37204;DHT22;23098;48.054;10.636;2023-10-08T12:10:23;20.60;81.20
37204;DHT22;23098;48.054;10.636;2023-10-08T12:12:52;20.50;80.90
37204;DHT22;23098;48.054;10.636;2023-10-08T12:15:19;20.60;81.10
37204;DHT22;23098;48.054;10.636;2023-10-08T12:17:49;20.60;80.90
37204;DHT22;23098;48.054;10.636;2023-10-08T12:20:37;20.70;80.50
37204;DHT22;23098;48.054;10.636;2023-10-08T12:23:07;20.80;81.80
37204;DHT22;23098;48.054;10.636;2023-10-08T12:25:36;20.80;81.20
37204;DHT22;23098;48.054;10.636;2023-10-08T12:28:03;20.90;80.80
37204;DHT22;23098;48.054;10.636;2023-10-08T12:30:33;21.00;80.60
37204;DHT22;23098;48.054;10.636;2023-10-08T12:33:07;21.00;79.50
37204;DHT22;23098;48.054;10.636;2023-10-08T12:35:35;21.00;80.50
37204;DHT22;23098;48.054;10.636;2023-10-08T12:38:02;20.90;81.40
37204;DHT22;23098;48.054;10.636;2023-10-08T12:40:30;20.70;81.90
37204;DHT22;23098;48.054;10.636;2023-10-08T12:43:08;20.80;80.80
37204;DHT22;23098;48.054;10.636;2023-10-08T12:45:33;20.70;80.30
37204;DHT22;23098;48.054;10.636;2023-10-08T12:47:59;20.70;80.20
37204;DHT22;23098;48.054;10.636;2023-10-08T12:50:24;20.70;80.20
37204;DHT22;23098;48.054;10.636;2023-10-08T12:53:10;20.70;81.50
37204;DHT22;23098;48.054;10.636;2023-10-08T12:55:40;20.70;81.90
37204;DHT22;23098;48.054;10.636;2023-10-08T12:58:06;20.70;82.80
37204;DHT22;23098;48.054;10.636;2023-10-08T13:00:38;20.70;83.40
37204;DHT22;23098;48.054;10.636;2023-10-08T13:03:04;20.70;83.30
37204;DHT22;23098;48.054;10.636;2023-10-08T13:05:43;20.70;83.50
37204;DHT22;23098;48.054;10.636;2023-10-08T13:08:13;20.70;83.40
37204;DHT22;23098;48.054;10.636;2023-10-08T13:10:55;20.50;83.30
37204;DHT22;23098;48.054;10.636;2023-10-08T13:13:29;20.60;83.10
37204;DHT22;23098;48.054;10.636;2023-10-08T13:15:55;20.60;81.80
37204;DHT22;23098;48.054;10.636;2023-10-08T13:18:23;20.60;82.90
37204;DHT22;23098;48.054;10.636;2023-10-08T13:20:51;20.50;83.90
37204;DHT22;23098;48.054;10.636;2023-10-08T13:23:17;20.40;81.30
37204;DHT22;23098;48.054;10.636;2023-10-08T13:25:44;20.40;82.20
37204;DHT22;23098;48.054;10.636;2023-10-08T13:28:12;20.30;82.90
37204;DHT22;23098;48.054;10.636;2023-10-08T13:30:37;20.30;82.20
37204;DHT22;23098;48.054;10.636;2023-10-08T13:33:03;20.30;82.80
37204;DHT22;23098;48.054;10.636;2023-10-08T13:35:29;20.20;81.40
37204;DHT22;23098;48.054;10.636;2023-10-08T13:37:54;20.20;81.60
37204;DHT22;23098;48.054;10.636;2023-10-08T13:40:21;20.20;81.90
37204;DHT22;23098;48.054;10.636;2023-10-08T13:42:58;20.10;83.20
37204;DHT22;23098;48.054;10.636;2023-10-08T13:45:23;20.00;82.90
37204;DHT22;23098;48.054;10.636;2023-10-08T13:47:52;20.00;82.70
37204;DHT22;23098;48.054;10.636;2023-10-08T13:50:18;20.10;82.90
37204;DHT22;23098;48.054;10.636;2023-10-08T13:52:44;20.10;83.00
37204;DHT22;23098;48.054;10.636;2023-10-08T13:55:09;20.00;83.00
37204;DHT22;23098;48.054;10.636;2023-10-08T13:57:39;20.00;83.30
37204;DHT22;23098;48.054;10.636;2023-10-08T14:00:07;20.00;83.00
37204;DHT22;23098;48.054;10.636;2023-10-08T14:02:41;19.80;84.50
37204;DHT22;23098;48.054;10.636;2023-10-08T14:05:08;19.90;83.40
37204;DHT22;23098;48.054;10.636;2023-10-08T14:07:53;19.90;83.50
37204;DHT22;23098;48.054;10.636;2023-10-08T14:10:18;20.00;82.80
37204;DHT22;23098;48.054;10.636;2023-10-08T14:12:47;20.00;82.50
37204;DHT22;23098;48.054;10.636;2023-10-08T14:15:16;20.00;82.20
37204;DHT22;23098;48.054;10.636;2023-10-08T14:17:43;20.10;82.00
37204;DHT22;23098;48.054;10.636;2023-10-08T14:20:10;20.10;82.10
37204;DHT22;23098;48.054;10.636;2023-10-08T14:22:39;20.10;82.50
37204;DHT22;23098;48.054;10.636;2023-10-08T14:25:07;20.10;82.50
37204;DHT22;23098;48.054;10.636;2023-10-08T14:27:37;20.00;83.00
37204;DHT22;23098;48.054;10.636;2023-10-08T14:30:09;20.00;82.70
37204;DHT22;23098;48.054;10.636;2023-10-08T14:32:41;20.00;82.70
37204;DHT22;23098;48.054;10.636;2023-10-08T14:35:12;19.90;83.00
37204;DHT22;23098;48.054;10.636;2023-10-08T14:37:56;20.00;82.80
37204;DHT22;23098;48.054;10.636;2023-10-08T14:40:40;20.00;82.50
37204;DHT22;23098;48.054;10.636;2023-10-08T14:43:25;20.00;82.60
37204;DHT22;23098;48.054;10.636;2023-10-08T14:45:50;20.00;81.90
37204;DHT22;23098;48.054;10.636;2023-10-08T14:48:18;20.00;82.70
37204;DHT22;23098;48.054;10.636;2023-10-08T14:50:43;20.00;82.40
37204;DHT22;23098;48.054;10.636;2023-10-08T14:53:09;20.00;82.20
37204;DHT22;23098;48.054;10.636;2023-10-08T14:55:35;20.00;82.40
37204;DHT22;23098;48.054;10.636;2023-10-08T14:58:05;20.00;82.70
37204;DHT22;23098;48.054;10.636;2023-10-08T15:00:34;19.90;83.50
37204;DHT22;23098;48.054;10.636;2023-10-08T15:03:02;19.80;83.40
37204;DHT22;23098;48.054;10.636;2023-10-08T15:05:28;19.80;83.50
37204;DHT22;23098;48.054;10.636;2023-10-08T15:07:54;19.80;84.10
37204;DHT22;23098;48.054;10.636;2023-10-08T15:10:20;19.70;83.30
37204;DHT22;23098;48.054;10.636;2023-10-08T15:12:49;19.70;84.30
37204;DHT22;23098;48.054;10.636;2023-10-08T15:15:17;19.80;84.00
37204;DHT22;23098;48.054;10.636;2023-10-08T15:17:47;19.90;83.70
37204;DHT22;23098;48.054;10.636;2023-10-08T15:20:15;19.90;84.90
37204;DHT22;23098;48.054;10.636;2023-10-08T15:22:46;20.00;85.10
37204;DHT22;23098;48.054;10.636;2023-10-08T15:25:13;20.10;84.90
37204;DHT22;23098;48.054;10.636;2023-10-08T15:27:41;20.00;85.50
37204;DHT22;23098;48.054;10.636;2023-10-08T15:30:11;20.00;83.80
37204;DHT22;23098;48.054;10.636;2023-10-08T15:32:41;20.00;84.10
37204;DHT22;23098;48.054;10.636;2023-10-08T15:35:09;20.00;83.50
37204;DHT22;23098;48.054;10.636;2023-10-08T15:37:36;19.90;84.60
37204;DHT22;23098;48.054;10.636;2023-10-08T15:40:03;19.80;86.00
37204;DHT22;23098;48.054;10.636;2023-10-08T15:42:35;19.70;87.70
37204;DHT22;23098;48.054;10.636;2023-10-08T15:45:04;19.60;87.40